Time;durP1;ratioP1;P1;durP2;ratioP2;P2;SDS_P1;SDS_P2;PMS_P1;PMS_P2;Temp;Humidity;BMP_temperature;BMP_pressure;BME280_temperature;BME280_humidity;BME280_pressure;Samples;Min_cycle;Max_cycle;Signal;HPM_P1;HPM_P2
2022/09/07 00:01:26;;;;;;;9.27;7.70;;;18.70;94.60;;;;;;4967348;28;20421;-82
2022/09/07 00:03:56;;;;;;;10.65;7.55;;;18.60;99.90;;;;;;4978510;28;20086;-82
2022/09/07 00:06:23;;;;;;;8.60;7.75;;;18.60;99.90;;;;;;4985673;28;20181;-83
2022/09/07 00:08:48;;;;;;;9.50;7.82;;;18.60;99.90;;;;;;4980360;28;20061;-82
2022/09/07 00:11:17;;;;;;;8.80;7.78;;;18.60;99.90;;;;;;4973850;28;20042;-82
2022/09/07 00:13:48;;;;;;;10.18;8.98;;;18.50;99.90;;;;;;4981123;28;20053;-82
2022/09/07 00:16:32;;;;;;;12.90;8.93;;;18.40;1.00;;;;;;4984772;28;20042;-83
2022/09/07 00:19:01;;;;;;;13.65;9.32;;;18.30;99.90;;;;;;4963106;28;20564;-83
2022/09/07 00:21:27;;;;;;;12.18;8.65;;;18.30;22.50;;;;;;4986270;28;20158;-83
2022/09/07 00:23:54;;;;;;;12.18;9.32;;;18.30;75.30;;;;;;4964243;28;20038;-83
2022/09/07 00:26:24;;;;;;;13.70;8.88;;;18.20;93.70;;;;;;4990632;28;20687;-83
2022/09/07 00:28:51;;;;;;;13.90;9.27;;;18.30;99.90;;;;;;4976735;28;20367;-83
2022/09/07 00:31:20;;;;;;;9.77;8.85;;;18.40;99.90;;;;;;4966149;28;20130;-83
2022/09/07 00:33:47;;;;;;;14.30;9.65;;;18.30;99.90;;;;;;4982471;28;20046;-83
2022/09/07 00:36:17;;;;;;;10.63;9.30;;;18.10;1.00;;;;;;4985438;28;20455;-84
2022/09/07 00:38:43;;;;;;;13.68;9.80;;;18.10;1.00;;;;;;4985784;28;20520;-84
2022/09/07 00:41:10;;;;;;;12.18;9.20;;;18.20;1.00;;;;;;4990945;28;20073;-83
2022/09/07 00:43:46;;;;;;;11.15;9.95;;;18.10;99.90;;;;;;4968368;28;20128;-84
2022/09/07 00:46:15;;;;;;;12.30;10.18;;;18.10;74.60;;;;;;5006155;28;20042;-84
2022/09/07 00:48:47;;;;;;;12.98;9.55;;;18.10;99.90;;;;;;4968016;28;20038;-84
2022/09/07 00:51:20;;;;;;;12.70;10.18;;;18.10;99.90;;;;;;4998506;28;20419;-84
2022/09/07 00:53:53;;;;;;;11.77;8.77;;;18.00;99.90;;;;;;4983112;28;20375;-83
2022/09/07 00:56:22;;;;;;;14.60;10.30;;;18.10;99.90;;;;;;4964368;28;20053;-83
2022/09/07 00:58:48;;;;;;;14.02;10.40;;;18.00;1.00;;;;;;4967685;28;20053;-83
2022/09/07 01:01:22;;;;;;;11.45;9.68;;;17.90;99.90;;;;;;4977708;28;20118;-83
2022/09/07 01:03:52;;;;;;;15.60;9.80;;;17.90;1.00;;;;;;4991433;28;20061;-83
2022/09/07 01:06:22;;;;;;;14.10;10.57;;;17.90;1.00;;;;;;4976352;28;20138;-82
2022/09/07 01:08:49;;;;;;;11.30;9.43;;;17.70;99.90;;;;;;4963728;28;20055;-83
2022/09/07 01:11:17;;;;;;;14.48;10.50;;;17.90;1.00;;;;;;4977914;28;20086;-83
2022/09/07 01:13:43;;;;;;;12.52;10.40;;;17.90;99.90;;;;;;4962890;28;20034;-83
2022/09/07 01:16:29;;;;;;;12.27;10.65;;;17.70;99.90;;;;;;4979857;28;20265;-83
2022/09/07 01:19:01;;;;;;;;;;;17.80;99.90;;;;;;4963495;28;20034;-86
2022/09/07 01:21:51;;;;;;;17.80;11.23;;;17.70;99.90;;;;;;4990823;28;19922;-86
2022/09/07 01:24:47;;;;;;;16.63;12.48;;;17.70;99.90;;;;;;5006376;28;20050;-85
2022/09/07 01:27:38;;;;;;;15.45;12.10;;;17.70;99.90;;;;;;4999748;28;20675;-87
2022/09/07 01:30:10;;;;;;;16.83;12.65;;;17.70;99.90;;;;;;4967678;28;20052;-87
2022/09/07 01:32:44;;;;;;;18.08;13.38;;;17.60;99.90;;;;;;4968239;28;20034;-87
2022/09/07 01:35:33;;;;;;;19.80;13.95;;;17.60;99.90;;;;;;5006680;28;20262;-88
2022/09/07 01:38:13;;;;;;;18.90;14.20;;;17.50;99.90;;;;;;4962949;28;20106;-84
2022/09/07 01:40:58;;;;;;;18.27;14.48;;;17.50;99.90;;;;;;4979496;28;20396;-84
2022/09/07 01:43:29;;;;;;;;;;;17.50;99.90;;;;;;4972883;28;20033;-84
2022/09/07 01:45:57;;;;;;;16.55;13.38;;;17.40;99.90;;;;;;4983921;28;20020;-84
2022/09/07 01:48:25;;;;;;;19.75;14.52;;;17.50;99.90;;;;;;4981387;28;20062;-87
2022/09/07 01:51:02;;;;;;;18.92;15.15;;;17.50;99.90;;;;;;4994955;28;20104;-91
2022/09/07 01:53:40;;;;;;;18.70;14.52;;;17.50;99.90;;;;;;4966799;28;20046;-86
2022/09/07 01:56:11;;;;;;;16.13;14.25;;;17.50;99.90;;;;;;4980227;28;20552;-86
2022/09/07 01:58:50;;;;;;;13.93;12.45;;;17.50;99.90;;;;;;4987167;28;20041;-87
2022/09/07 02:01:32;;;;;;;13.75;12.27;;;17.50;99.90;;;;;;4993899;28;20081;-88
2022/09/07 02:04:16;;;;;;;14.60;12.68;;;17.50;99.90;;;;;;4990477;28;20065;-87
2022/09/07 02:06:50;;;;;;;13.15;11.32;;;17.50;99.90;;;;;;4965995;28;21107;-90
2022/09/07 02:09:28;;;;;;;13.32;10.50;;;17.50;99.90;;;;;;4972143;28;20046;-90
2022/09/07 02:11:53;;;;;;;12.93;10.85;;;17.60;99.90;;;;;;5009486;28;20042;-88
2022/09/07 02:14:27;;;;;;;7.88;7.07;;;17.50;99.90;;;;;;4986934;28;20065;-88
2022/09/07 02:17:02;;;;;;;11.30;10.10;;;17.60;99.90;;;;;;4985410;28;20398;-87
2022/09/07 02:19:36;;;;;;;9.55;8.18;;;17.50;99.90;;;;;;4983756;28;20038;-89
2022/09/07 02:22:07;;;;;;;9.23;8.00;;;17.40;99.90;;;;;;4970258;28;20046;-89
2022/09/07 02:24:37;;;;;;;7.25;5.95;;;17.50;99.90;;;;;;4992021;28;20054;-88
2022/09/07 02:27:12;;;;;;;11.18;7.28;;;17.30;99.90;;;;;;4982515;28;20053;-87
2022/09/07 02:29:38;;;;;;;7.90;7.10;;;17.40;99.90;;;;;;4979770;28;20410;-86
2022/09/07 02:32:04;;;;;;;6.97;6.07;;;17.30;99.90;;;;;;4989415;28;20054;-85
2022/09/07 02:34:31;;;;;;;6.95;5.90;;;17.20;99.90;;;;;;5010661;28;20066;-86
2022/09/07 02:37:00;;;;;;;8.63;6.15;;;17.20;99.90;;;;;;4983924;28;20042;-85
2022/09/07 02:39:26;;;;;;;8.15;6.45;;;17.10;99.90;;;;;;4980013;28;20382;-84
2022/09/07 02:41:51;;;;;;;6.35;5.53;;;17.10;99.90;;;;;;4980275;28;20046;-85
2022/09/07 02:44:21;;;;;;;9.20;6.72;;;17.20;99.90;;;;;;4985406;28;20050;-85
2022/09/07 02:47:32;;;;;;;9.90;7.63;;;17.20;99.90;;;;;;5012686;28;20077;-86
2022/09/07 02:50:17;;;;;;;7.93;6.50;;;17.10;99.90;;;;;;4987806;28;20343;-85
2022/09/07 02:53:08;;;;;;;9.35;7.13;;;17.10;99.90;;;;;;4990467;28;20049;-85
2022/09/07 02:55:50;;;;;;;8.18;6.88;;;17.20;99.90;;;;;;4981363;28;20105;-85
2022/09/07 02:58:50;;;;;;;9.05;6.80;;;17.20;99.90;;;;;;5008037;28;20041;-85
2022/09/07 03:01:34;;;;;;;7.95;7.00;;;17.20;99.90;;;;;;4981167;28;20455;-85
2022/09/07 03:04:18;;;;;;;7.15;6.45;;;17.20;99.90;;;;;;4962409;28;20061;-85
2022/09/07 03:06:53;;;;;;;8.63;7.38;;;17.20;99.90;;;;;;4973802;28;20072;-85
2022/09/07 03:09:24;;;;;;;8.80;7.00;;;17.30;99.90;;;;;;4982012;28;20049;-85
2022/09/07 03:11:51;;;;;;;8.20;6.80;;;17.30;99.90;;;;;;4964157;28;20114;-85
2022/09/07 03:14:24;;;;;;;7.88;7.07;;;17.30;99.90;;;;;;5006635;28;20095;-85
2022/09/07 03:16:55;;;;;;;9.82;7.35;;;17.30;99.90;;;;;;4986290;28;20121;-85
2022/09/07 03:19:21;;;;;;;9.60;7.60;;;17.40;99.90;;;;;;4978769;28;20402;-85
2022/09/07 03:21:47;;;;;;;6.88;6.18;;;17.40;99.90;;;;;;4966084;28;20068;-85
2022/09/07 03:24:16;;;;;;;9.00;7.60;;;17.30;99.90;;;;;;4977144;28;20652;-85
2022/09/07 03:26:50;;;;;;;9.95;7.25;;;17.40;99.90;;;;;;5007783;28;20049;-85
2022/09/07 03:29:16;;;;;;;8.10;6.60;;;17.40;99.90;;;;;;4981420;28;20049;-85
2022/09/07 03:31:43;;;;;;;9.98;7.22;;;17.30;99.90;;;;;;4966649;28;20038;-86
2022/09/07 03:34:09;;;;;;;8.10;7.30;;;17.30;99.90;;;;;;4976373;28;20034;-85
2022/09/07 03:36:35;;;;;;;8.35;7.32;;;17.30;99.90;;;;;;4981773;28;20349;-83
2022/09/07 03:39:01;;;;;;;8.38;7.35;;;17.30;99.90;;;;;;4964170;28;20442;-84
2022/09/07 03:41:27;;;;;;;9.02;7.90;;;17.30;99.90;;;;;;4980607;28;20556;-85
2022/09/07 03:44:00;;;;;;;9.63;7.43;;;17.30;99.90;;;;;;4968596;28;20039;-85
2022/09/07 03:46:26;;;;;;;8.85;7.95;;;17.20;99.90;;;;;;4976077;28;20051;-84
2022/09/07 03:48:52;;;;;;;8.85;7.95;;;17.30;99.90;;;;;;4964793;28;20338;-85
2022/09/07 03:51:18;;;;;;;9.93;8.25;;;17.20;99.90;;;;;;4975944;28;20045;-85
2022/09/07 03:53:45;;;;;;;9.35;8.45;;;17.20;99.90;;;;;;5008780;28;20101;-84
2022/09/07 03:56:12;;;;;;;9.75;8.73;;;17.20;99.90;;;;;;4971680;28;20053;-85
2022/09/07 03:58:38;;;;;;;10.13;9.10;;;17.20;99.90;;;;;;4969795;28;20044;-85
2022/09/07 04:01:07;;;;;;;9.10;8.10;;;17.30;99.90;;;;;;4983883;28;20046;-84
2022/09/07 04:03:33;;;;;;;10.70;8.38;;;17.20;99.90;;;;;;4981803;28;20038;-86
2022/09/07 04:06:00;;;;;;;11.68;8.55;;;17.30;99.90;;;;;;4986207;28;20453;-84
2022/09/07 04:08:28;;;;;;;10.63;9.52;;;17.30;99.90;;;;;;4980500;28;20066;-84
2022/09/07 04:10:56;;;;;;;11.70;9.50;;;17.40;99.90;;;;;;4965236;28;20046;-85
2022/09/07 04:13:23;;;;;;;11.65;9.15;;;17.30;99.90;;;;;;4979296;28;20042;-85
2022/09/07 04:15:48;;;;;;;11.32;10.13;;;17.30;99.90;;;;;;4975648;28;20047;-85
2022/09/07 04:18:14;;;;;;;12.40;10.90;;;17.30;99.90;;;;;;4999533;28;20569;-84
2022/09/07 04:20:40;;;;;;;13.73;10.57;;;17.30;99.90;;;;;;5000886;28;20122;-85
2022/09/07 04:23:06;;;;;;;13.65;11.00;;;17.20;99.90;;;;;;4992628;28;20121;-85
2022/09/07 04:25:31;;;;;;;13.75;10.43;;;17.20;99.90;;;;;;4988674;28;20173;-85
2022/09/07 04:28:00;;;;;;;13.70;11.63;;;17.20;99.90;;;;;;4973566;28;20490;-85
2022/09/07 04:30:25;;;;;;;13.63;12.25;;;17.20;99.90;;;;;;5004975;28;20589;-85
2022/09/07 04:32:51;;;;;;;13.00;11.68;;;17.10;99.90;;;;;;5003851;28;20042;-85
2022/09/07 04:35:17;;;;;;;13.82;12.43;;;17.20;99.90;;;;;;5010067;28;20045;-86
2022/09/07 04:37:43;;;;;;;13.15;11.77;;;17.10;99.90;;;;;;5001303;28;20045;-86
2022/09/07 04:40:10;;;;;;;14.95;12.77;;;17.10;99.90;;;;;;4969083;28;20046;-85
2022/09/07 04:42:35;;;;;;;14.63;12.23;;;17.00;99.90;;;;;;4977563;28;20184;-85
2022/09/07 04:45:05;;;;;;;14.80;13.00;;;17.00;99.90;;;;;;4969750;28;20046;-85
2022/09/07 04:47:30;;;;;;;14.48;13.02;;;17.00;99.90;;;;;;5007095;28;20042;-85
2022/09/07 04:49:56;;;;;;;14.10;12.70;;;17.00;99.90;;;;;;4962756;28;20460;-85
2022/09/07 04:52:23;;;;;;;14.27;12.38;;;16.90;99.90;;;;;;4968948;28;20034;-84
2022/09/07 04:54:51;;;;;;;15.52;13.85;;;16.90;99.90;;;;;;4981726;28;20038;-85
2022/09/07 04:57:23;;;;;;;15.18;13.60;;;16.90;99.90;;;;;;4967478;28;20118;-85
2022/09/07 04:59:49;;;;;;;14.77;13.38;;;16.90;99.90;;;;;;4982857;28;20112;-85
2022/09/07 05:02:14;;;;;;;14.90;13.30;;;16.90;99.90;;;;;;4976576;28;20475;-85
2022/09/07 05:04:40;;;;;;;16.45;14.02;;;16.80;99.90;;;;;;4993385;28;20310;-85
2022/09/07 05:07:06;;;;;;;15.63;14.00;;;16.90;99.90;;;;;;4981768;28;20189;-85
2022/09/07 05:09:31;;;;;;;17.20;15.43;;;17.00;99.90;;;;;;4984484;28;20058;-85
2022/09/07 05:12:00;;;;;;;17.02;15.23;;;16.90;99.90;;;;;;4991983;28;20117;-85
2022/09/07 05:14:26;;;;;;;15.82;14.23;;;16.90;99.90;;;;;;5009460;28;20108;-85
2022/09/07 05:16:51;;;;;;;20.35;16.38;;;16.90;99.90;;;;;;4965023;28;20294;-85
2022/09/07 05:19:17;;;;;;;20.65;16.48;;;16.90;99.90;;;;;;4993300;28;20368;-85
2022/09/07 05:21:43;;;;;;;17.13;15.40;;;16.90;99.90;;;;;;4968896;28;20049;-85
2022/09/07 05:24:08;;;;;;;20.05;15.80;;;17.00;99.90;;;;;;4983086;28;20046;-84
2022/09/07 05:26:36;;;;;;;19.08;16.48;;;17.00;99.90;;;;;;4978743;28;20054;-85
2022/09/07 05:29:04;;;;;;;18.30;16.40;;;17.00;99.90;;;;;;4989670;28;20126;-85
2022/09/07 05:31:30;;;;;;;22.60;16.63;;;17.00;99.90;;;;;;4984454;28;20054;-85
2022/09/07 05:33:56;;;;;;;19.27;16.75;;;17.00;99.90;;;;;;4991872;28;20133;-85
2022/09/07 05:36:26;;;;;;;19.65;17.58;;;17.00;99.90;;;;;;4981289;28;20045;-84
2022/09/07 05:38:57;;;;;;;20.65;17.70;;;17.10;99.90;;;;;;5011533;28;20045;-85
2022/09/07 05:41:25;;;;;;;22.25;19.00;;;17.10;99.90;;;;;;5006694;28;20050;-85
2022/09/07 05:43:51;;;;;;;21.70;18.73;;;17.10;99.90;;;;;;4968697;28;20042;-85
2022/09/07 05:46:17;;;;;;;21.70;19.60;;;17.00;99.90;;;;;;4986899;28;20363;-85
2022/09/07 05:48:43;;;;;;;23.02;19.10;;;17.20;99.90;;;;;;4981031;28;20046;-85
2022/09/07 05:51:11;;;;;;;20.83;18.10;;;17.10;99.90;;;;;;4984698;28;20042;-85
2022/09/07 05:53:39;;;;;;;22.35;19.00;;;17.10;99.90;;;;;;4984668;28;20045;-85
2022/09/07 05:56:05;;;;;;;25.33;21.23;;;17.20;99.90;;;;;;4987218;28;20047;-85
2022/09/07 05:58:35;;;;;;;26.20;23.02;;;17.20;99.90;;;;;;4969246;28;20417;-85
2022/09/07 06:01:06;;;;;;;30.83;26.63;;;17.20;99.90;;;;;;5008949;28;20047;-85
2022/09/07 06:03:34;;;;;;;28.27;24.38;;;17.20;99.90;;;;;;5004783;28;20053;-85
2022/09/07 06:06:05;;;;;;;29.73;25.88;;;17.30;99.90;;;;;;5009870;28;20076;-85
2022/09/07 06:08:33;;;;;;;30.23;26.63;;;17.30;99.90;;;;;;5013589;28;20161;-85
2022/09/07 06:11:07;;;;;;;30.48;27.17;;;17.20;99.90;;;;;;4981570;28;20148;-85
2022/09/07 06:13:34;;;;;;;32.40;27.67;;;17.30;99.90;;;;;;4985323;28;20514;-85
2022/09/07 06:16:01;;;;;;;30.48;26.98;;;17.40;99.90;;;;;;4997434;28;20048;-85
2022/09/07 06:18:31;;;;;;;30.63;25.17;;;17.50;99.90;;;;;;4992488;28;20361;-85
2022/09/07 06:21:11;;;;;;;28.98;24.45;;;17.50;99.90;;;;;;5008238;28;20053;-85
2022/09/07 06:23:39;;;;;;;26.88;24.13;;;17.60;99.90;;;;;;5004936;28;20117;-84
2022/09/07 06:26:05;;;;;;;26.08;23.27;;;17.60;99.90;;;;;;4961489;28;20318;-85
2022/09/07 06:28:34;;;;;;;25.58;22.70;;;17.70;99.90;;;;;;4991477;28;20530;-85
2022/09/07 06:31:00;;;;;;;24.92;22.27;;;17.60;99.90;;;;;;4969121;28;20050;-85
2022/09/07 06:33:26;;;;;;;25.42;22.42;;;17.60;99.90;;;;;;4988960;28;20088;-85
2022/09/07 06:35:56;;;;;;;23.13;20.08;;;17.60;99.90;;;;;;5012158;28;20058;-85
2022/09/07 06:38:22;;;;;;;23.80;21.42;;;17.70;99.90;;;;;;4979960;28;20133;-85
2022/09/07 06:40:47;;;;;;;23.38;20.95;;;17.80;99.90;;;;;;4987593;28;20129;-85
2022/09/07 06:43:13;;;;;;;22.27;19.63;;;17.70;99.90;;;;;;4976080;28;20092;-85
2022/09/07 06:45:39;;;;;;;24.10;21.52;;;17.80;99.90;;;;;;4980214;28;20125;-84
2022/09/07 06:48:04;;;;;;;25.00;21.17;;;17.80;99.90;;;;;;4980304;28;20046;-85
2022/09/07 06:50:30;;;;;;;23.77;21.20;;;17.80;99.90;;;;;;4986117;28;20414;-85
2022/09/07 06:52:56;;;;;;;23.77;20.38;;;17.90;99.90;;;;;;4980591;28;20129;-85
2022/09/07 06:55:21;;;;;;;24.40;20.38;;;17.80;99.90;;;;;;4962977;28;20450;-85
2022/09/07 06:57:51;;;;;;;23.67;21.23;;;17.80;99.90;;;;;;4965406;28;20454;-84
2022/09/07 07:00:16;;;;;;;26.33;20.67;;;17.80;99.90;;;;;;4968581;28;20112;-85
2022/09/07 07:02:42;;;;;;;22.92;20.52;;;17.80;99.90;;;;;;4966941;28;20489;-85
2022/09/07 07:05:08;;;;;;;22.13;19.92;;;17.80;99.90;;;;;;4976973;28;20042;-84
2022/09/07 07:07:34;;;;;;;21.92;19.70;;;18.00;99.90;;;;;;4997125;28;20050;-85
2022/09/07 07:10:00;;;;;;;23.38;20.88;;;17.90;99.90;;;;;;5010803;28;20160;-85
2022/09/07 07:12:29;;;;;;;23.70;21.15;;;18.00;99.90;;;;;;4987233;28;20041;-85
2022/09/07 07:14:55;;;;;;;23.10;20.55;;;17.80;99.90;;;;;;4983715;28;20138;-85
2022/09/07 07:17:21;;;;;;;23.17;20.60;;;17.80;99.90;;;;;;4973689;28;20461;-85
2022/09/07 07:19:47;;;;;;;23.77;20.92;;;18.00;99.90;;;;;;4975522;28;20622;-85
2022/09/07 07:22:12;;;;;;;23.40;20.88;;;18.00;99.90;;;;;;4983492;28;20117;-85
2022/09/07 07:24:38;;;;;;;23.30;20.83;;;18.00;99.90;;;;;;4987579;28;20109;-85
2022/09/07 07:27:04;;;;;;;23.50;21.08;;;18.00;99.90;;;;;;4976633;28;20053;-85
2022/09/07 07:29:29;;;;;;;23.33;20.92;;;18.00;99.90;;;;;;4972809;28;20541;-85
2022/09/07 07:31:55;;;;;;;25.15;21.67;;;18.10;99.90;;;;;;4986559;28;20035;-85
2022/09/07 07:34:23;;;;;;;25.15;22.45;;;18.10;99.90;;;;;;4976301;28;20474;-85
2022/09/07 07:36:49;;;;;;;27.27;22.15;;;18.10;99.90;;;;;;4964262;28;20146;-84
2022/09/07 07:39:17;;;;;;;26.23;22.15;;;18.20;99.90;;;;;;4969940;28;20050;-85
2022/09/07 07:41:43;;;;;;;22.90;20.50;;;18.30;99.90;;;;;;5007967;28;20097;-85
2022/09/07 07:44:09;;;;;;;24.00;21.55;;;18.40;99.90;;;;;;4998893;28;20058;-85
2022/09/07 07:46:34;;;;;;;26.63;22.45;;;18.40;99.90;;;;;;4975745;28;20061;-85
2022/09/07 07:49:00;;;;;;;26.23;22.13;;;18.40;99.90;;;;;;4988033;28;20554;-84
2022/09/07 07:51:26;;;;;;;24.40;21.85;;;18.60;99.90;;;;;;4978987;28;20089;-85
2022/09/07 07:53:51;;;;;;;24.20;21.63;;;18.70;99.90;;;;;;4988838;28;20255;-85
2022/09/07 07:56:17;;;;;;;26.98;22.52;;;18.60;99.90;;;;;;4965426;28;20320;-85
2022/09/07 07:58:45;;;;;;;24.67;22.08;;;18.70;99.90;;;;;;4971939;28;20034;-85
2022/09/07 08:01:13;;;;;;;26.55;22.17;;;18.90;99.90;;;;;;4980374;28;20481;-85
2022/09/07 08:03:42;;;;;;;25.73;22.95;;;18.90;99.90;;;;;;4977202;28;20426;-84
2022/09/07 08:06:20;;;;;;;25.48;22.95;;;18.90;99.90;;;;;;4978642;28;20046;-85
2022/09/07 08:08:52;;;;;;;27.27;23.98;;;19.00;99.90;;;;;;4968098;28;20046;-84
2022/09/07 08:11:19;;;;;;;25.73;23.00;;;19.20;99.90;;;;;;4977830;28;20055;-85
2022/09/07 08:13:48;;;;;;;26.00;23.30;;;19.20;99.90;;;;;;4997880;28;20088;-85
2022/09/07 08:16:17;;;;;;;25.23;22.52;;;19.40;99.90;;;;;;4980887;28;20050;-85
2022/09/07 08:18:43;;;;;;;25.45;22.83;;;19.70;99.90;;;;;;4973242;28;20046;-85
2022/09/07 08:21:15;;;;;;;25.95;22.50;;;19.80;99.90;;;;;;4984936;28;20056;-85
2022/09/07 08:23:44;;;;;;;27.67;23.50;;;19.90;99.90;;;;;;4968342;28;20049;-85
2022/09/07 08:26:10;;;;;;;26.52;23.65;;;19.80;99.90;;;;;;4974703;28;20069;-85
2022/09/07 08:28:39;;;;;;;27.33;23.40;;;19.70;99.90;;;;;;4956308;28;20460;-85
2022/09/07 08:31:12;;;;;;;27.95;24.63;;;19.80;99.90;;;;;;5009649;28;20042;-84
2022/09/07 08:33:38;;;;;;;26.77;23.98;;;19.50;99.90;;;;;;4979729;28;20595;-85
2022/09/07 08:36:10;;;;;;;26.35;23.55;;;19.60;99.90;;;;;;5013273;28;20038;-85
2022/09/07 08:38:36;;;;;;;26.85;24.00;;;19.60;99.90;;;;;;4981639;28;20563;-85
2022/09/07 08:41:38;;;;;;;25.27;22.38;;;19.50;99.90;;;;;;4971864;28;20096;-84
2022/09/07 08:44:30;;;;;;;29.55;24.40;;;19.80;99.90;;;;;;4977336;28;20265;-87
2022/09/07 08:47:15;;;;;;;26.80;23.98;;;19.70;99.90;;;;;;4986582;28;20754;-88
2022/09/07 08:50:10;;;;;;;25.23;22.27;;;19.90;99.90;;;;;;4971836;28;20430;-88
2022/09/07 08:52:55;;;;;;;26.50;23.67;;;20.00;99.90;;;;;;4977754;28;20046;-88
2022/09/07 08:55:30;;;;;;;26.77;22.83;;;20.00;99.90;;;;;;4977734;28;20073;-88
2022/09/07 08:58:00;;;;;;;25.17;22.55;;;20.30;99.90;;;;;;4978805;28;20093;-89
2022/09/07 09:00:27;;;;;;;25.20;22.55;;;20.30;99.90;;;;;;4976224;28;20074;-88
2022/09/07 09:02:52;;;;;;;24.92;21.42;;;20.20;99.90;;;;;;4980617;28;20054;-88
2022/09/07 09:05:27;;;;;;;24.52;22.02;;;20.20;99.90;;;;;;5009617;28;20046;-90
2022/09/07 09:08:17;;;;;;;26.00;22.02;;;20.30;99.90;;;;;;4981757;28;20398;-88
2022/09/07 09:11:02;;;;;;;27.63;23.50;;;20.10;99.90;;;;;;4978633;28;20069;-89
2022/09/07 09:13:57;;;;;;;26.25;23.30;;;19.90;99.90;;;;;;4959979;28;20042;-88
2022/09/07 09:16:37;;;;;;;25.73;22.98;;;20.60;99.90;;;;;;4980407;28;20050;-87
2022/09/07 09:20:00;;;;;;;23.67;21.17;;;20.60;99.90;;;;;;5010780;28;20052;-87
2022/09/07 09:22:27;;;;;;;23.05;20.55;;;20.60;99.90;;;;;;4939676;28;20047;-88
2022/09/07 09:25:13;;;;;;;23.58;19.92;;;20.70;99.90;;;;;;4969064;28;20849;-89
2022/09/07 09:27:38;;;;;;;20.23;18.13;;;20.80;99.90;;;;;;4963488;28;20054;-88
2022/09/07 09:30:17;;;;;;;19.33;17.35;;;20.80;1.00;;;;;;4976287;28;20217;-88
2022/09/07 09:32:45;;;;;;;17.50;15.77;;;21.30;99.90;;;;;;5012778;28;20034;-87
2022/09/07 09:35:27;;;;;;;15.70;13.90;;;21.40;28.50;;;;;;4978766;28;20042;-89
2022/09/07 09:37:53;;;;;;;15.65;13.43;;;21.80;99.90;;;;;;4980697;28;20042;-88
2022/09/07 09:40:25;;;;;;;13.77;12.32;;;21.70;1.00;;;;;;4964832;28;20420;-89
2022/09/07 09:43:26;;;;;;;14.60;12.15;;;21.50;34.90;;;;;;4990065;28;20133;-88
2022/09/07 09:45:55;;;;;;;13.93;12.23;;;22.00;99.90;;;;;;4993774;28;20065;-88
2022/09/07 09:48:33;;;;;;;13.13;11.38;;;21.90;99.90;;;;;;4979491;28;20054;-90
2022/09/07 09:51:00;;;;;;;14.85;11.20;;;21.90;1.00;;;;;;4980035;28;20596;-89
2022/09/07 09:53:33;;;;;;;13.13;11.82;;;21.80;1.00;;;;;;4963497;28;20135;-88
2022/09/07 09:56:01;;;;;;;13.70;10.88;;;21.90;99.90;;;;;;4966083;28;20041;-89
2022/09/07 09:58:33;;;;;;;12.25;11.05;;;22.20;99.90;;;;;;4958906;28;20561;-89
2022/09/07 10:01:20;;;;;;;13.50;10.82;;;22.20;79.80;;;;;;4978381;28;20078;-89
2022/09/07 10:03:46;;;;;;;11.20;10.02;;;22.10;99.90;;;;;;4964322;28;20324;-87
2022/09/07 10:06:16;;;;;;;10.57;9.50;;;22.20;99.90;;;;;;4999665;28;20050;-85
2022/09/07 10:08:56;;;;;;;10.32;9.25;;;22.30;7.60;;;;;;4983116;28;20506;-85
2022/09/07 10:11:46;;;;;;;10.68;9.57;;;22.20;1.00;;;;;;5011408;28;20114;-84
2022/09/07 10:14:24;;;;;;;12.13;9.52;;;22.10;99.90;;;;;;4982211;28;20045;-85
2022/09/07 10:16:50;;;;;;;9.75;8.75;;;22.10;99.90;;;;;;4966171;28;20042;-85
2022/09/07 10:19:34;;;;;;;9.60;8.60;;;22.40;99.90;;;;;;4982413;28;20049;-85
2022/09/07 10:22:21;;;;;;;10.17;9.17;;;22.40;99.90;;;;;;4980513;28;20046;-85
2022/09/07 10:24:50;;;;;;;9.43;7.75;;;22.70;99.90;;;;;;4967342;28;20657;-85
2022/09/07 10:27:28;;;;;;;8.88;7.43;;;23.00;1.00;;;;;;4965552;28;20046;-86
2022/09/07 10:29:54;;;;;;;8.20;7.40;;;23.40;75.70;;;;;;4981900;28;20509;-85
2022/09/07 10:32:39;;;;;;;8.75;7.07;;;23.20;99.90;;;;;;4978425;28;20058;-85
2022/09/07 10:35:24;;;;;;;7.18;6.22;;;22.70;99.90;;;;;;4983828;28;20648;-85
2022/09/07 10:38:02;;;;;;;6.85;6.15;;;22.20;1.00;;;;;;4984746;28;20042;-86
2022/09/07 10:40:41;;;;;;;7.75;6.97;;;22.10;99.90;;;;;;4984418;28;20126;-85
2022/09/07 10:43:25;;;;;;;7.78;6.30;;;22.40;1.00;;;;;;4982757;28;20045;-85
2022/09/07 10:46:24;;;;;;;7.30;6.25;;;22.10;99.90;;;;;;4985478;28;20050;-86
2022/09/07 10:49:24;;;;;;;7.22;6.03;;;22.30;1.00;;;;;;4966654;28;20502;-84
2022/09/07 10:52:13;;;;;;;6.45;5.70;;;21.90;99.90;;;;;;4981910;28;20247;-84
2022/09/07 10:54:57;;;;;;;7.65;6.20;;;22.30;94.40;;;;;;5006863;28;22100;-85
2022/09/07 10:57:57;;;;;;;6.75;5.82;;;22.50;99.90;;;;;;5012383;28;20117;-85
2022/09/07 11:00:24;;;;;;;5.65;5.00;;;22.80;99.90;;;;;;4986451;28;20030;-85
2022/09/07 11:03:10;;;;;;;7.32;5.45;;;23.40;99.90;;;;;;5014515;28;20058;-85
2022/09/07 11:06:08;;;;;;;5.70;5.18;;;23.80;99.90;;;;;;4966738;28;20671;-85
2022/09/07 11:09:13;;;;;;;6.45;5.53;;;23.90;99.90;;;;;;4982470;28;20188;-85
2022/09/07 11:12:16;;;;;;;5.68;5.18;;;24.30;99.90;;;;;;4982318;28;20129;-85
2022/09/07 11:15:03;;;;;;;6.53;5.15;;;23.90;99.90;;;;;;4980433;28;20041;-85
2022/09/07 11:17:34;;;;;;;5.97;5.38;;;23.80;99.90;;;;;;4993180;28;20053;-84
2022/09/07 11:20:20;;;;;;;5.38;4.13;;;23.70;99.90;;;;;;4997318;28;20080;-85
2022/09/07 11:22:50;;;;;;;4.28;3.88;;;24.00;1.00;;;;;;4981345;28;20680;-85
2022/09/07 11:25:22;;;;;;;5.88;4.45;;;23.90;99.90;;;;;;4967087;28;20424;-85
2022/09/07 11:28:19;;;;;;;4.55;3.92;;;23.70;36.40;;;;;;4964876;28;20549;-85
2022/09/07 11:30:49;;;;;;;4.25;3.85;;;24.20;59.10;;;;;;4920215;28;20051;-85
2022/09/07 11:33:18;;;;;;;4.93;3.55;;;24.70;99.90;;;;;;4981275;28;20180;-84
2022/09/07 11:36:04;;;;;;;5.45;3.80;;;25.00;99.90;;;;;;4980667;28;20154;-85
2022/09/07 11:38:32;;;;;;;4.35;3.70;;;24.80;1.00;;;;;;4962430;28;20039;-85
2022/09/07 11:41:18;;;;;;;3.75;3.45;;;24.20;99.90;;;;;;4979771;28;20050;-85
2022/09/07 11:43:47;;;;;;;3.10;2.80;;;23.80;23.10;;;;;;4972834;28;20062;-85
2022/09/07 11:46:25;;;;;;;4.13;2.78;;;23.70;99.90;;;;;;4972039;28;20452;-84
2022/09/07 11:48:54;;;;;;;2.95;2.60;;;24.50;1.00;;;;;;4964738;28;20042;-84
2022/09/07 11:51:46;;;;;;;6.18;3.17;;;24.50;1.00;;;;;;4953499;28;20054;-84
2022/09/07 11:54:26;;;;;;;3.65;3.17;;;24.50;99.90;;;;;;4988741;28;20049;-85
2022/09/07 11:57:05;;;;;;;3.13;2.83;;;24.20;1.00;;;;;;4968838;28;20042;-84
2022/09/07 11:59:43;;;;;;;4.03;3.00;;;24.60;99.90;;;;;;4986832;28;20029;-84
2022/09/07 12:02:21;;;;;;;3.00;2.60;;;24.80;99.90;;;;;;4978941;28;20050;-84
2022/09/07 12:04:46;;;;;;;3.88;2.80;;;24.30;60.90;;;;;;4983801;28;20050;-84
2022/09/07 12:07:32;;;;;;;3.17;2.80;;;24.90;99.90;;;;;;4973115;28;20062;-84
2022/09/07 12:10:36;;;;;;;3.15;2.67;;;25.30;99.90;;;;;;4975787;28;20556;-85
2022/09/07 12:13:39;;;;;;;3.10;2.20;;;25.40;99.90;;;;;;4984247;28;20038;-84
2022/09/07 12:16:17;;;;;;;3.10;2.25;;;26.20;99.90;;;;;;4977554;28;20077;-85
2022/09/07 12:19:27;;;;;;;3.03;2.10;;;26.20;99.90;;;;;;4990452;28;20478;-84
2022/09/07 12:21:58;;;;;;;3.50;2.35;;;25.30;99.90;;;;;;4990020;28;20522;-87
2022/09/07 12:24:37;;;;;;;3.20;2.38;;;25.70;99.90;;;;;;4977082;28;20089;-86
2022/09/07 12:27:04;;;;;;;3.95;2.47;;;25.30;99.90;;;;;;5006897;28;20101;-86
2022/09/07 12:29:30;;;;;;;3.97;2.50;;;25.20;99.90;;;;;;4970429;28;20038;-87
2022/09/07 12:32:02;;;;;;;2.97;2.20;;;25.30;99.90;;;;;;4980145;28;20041;-87
2022/09/07 12:34:31;;;;;;;2.53;2.03;;;25.80;99.90;;;;;;4986225;28;20050;-87
2022/09/07 12:37:04;;;;;;;4.47;2.38;;;25.30;99.90;;;;;;5013941;28;20478;-87
2022/09/07 12:39:31;;;;;;;3.55;2.30;;;25.50;99.90;;;;;;4984588;28;20049;-87
2022/09/07 12:42:06;;;;;;;3.30;2.70;;;26.00;99.90;;;;;;4986117;28;20092;-87
2022/09/07 12:44:33;;;;;;;3.75;3.00;;;26.20;99.90;;;;;;4989892;28;20129;-87
2022/09/07 12:47:01;;;;;;;2.65;2.25;;;26.20;99.90;;;;;;4997284;28;20050;-88
2022/09/07 12:49:41;;;;;;;2.83;2.08;;;26.60;99.90;;;;;;4986603;28;20038;-87
2022/09/07 12:52:25;;;;;;;2.20;2.00;;;27.00;99.90;;;;;;4983150;28;20050;-87
2022/09/07 12:55:17;;;;;;;2.97;2.00;;;27.20;99.90;;;;;;4977582;28;20098;-87
2022/09/07 12:58:02;;;;;;;2.33;1.70;;;27.10;20.60;;;;;;5004091;28;20042;-87
2022/09/07 13:00:43;;;;;;;2.97;2.25;;;27.30;58.20;;;;;;4984982;28;20073;-86
2022/09/07 13:03:24;;;;;;;1.77;1.50;;;27.10;52.50;;;;;;4976839;28;20095;-87
2022/09/07 13:05:59;;;;;;;4.40;1.75;;;27.90;72.70;;;;;;5007254;28;20047;-87